sensor_id;sensor_type;location;lat;lon;timestamp;temperature;humidity
67054;SHT31;53960;51.826;5.850;2022-09-17T00:01:27;11.78;83.91
67054;SHT31;53960;51.826;5.850;2022-09-17T00:03:55;11.71;84.06
67054;SHT31;53960;51.826;5.850;2022-09-17T00:06:23;11.69;84.18
67054;SHT31;53960;51.826;5.850;2022-09-17T00:08:49;11.73;83.88
67054;SHT31;53960;51.826;5.850;2022-09-17T00:11:24;11.78;83.73
67054;SHT31;53960;51.826;5.850;2022-09-17T00:13:50;11.81;83.55
67054;SHT31;53960;51.826;5.850;2022-09-17T00:16:40;11.79;83.63
67054;SHT31;53960;51.826;5.850;2022-09-17T00:19:07;11.78;83.54
67054;SHT31;53960;51.826;5.850;2022-09-17T00:21:34;11.73;83.55
67054;SHT31;53960;51.826;5.850;2022-09-17T00:24:02;11.68;83.58
67054;SHT31;53960;51.826;5.850;2022-09-17T00:26:29;11.68;83.65
67054;SHT31;53960;51.826;5.850;2022-09-17T00:28:56;11.73;83.56
67054;SHT31;53960;51.826;5.850;2022-09-17T00:31:22;11.81;83.22
67054;SHT31;53960;51.826;5.850;2022-09-17T00:33:47;11.69;83.27
67054;SHT31;53960;51.826;5.850;2022-09-17T00:36:13;11.69;83.44
67054;SHT31;53960;51.826;5.850;2022-09-17T00:38:39;11.65;83.49
67054;SHT31;53960;51.826;5.850;2022-09-17T00:41:05;11.65;83.64
67054;SHT31;53960;51.826;5.850;2022-09-17T00:43:44;11.66;83.45
67054;SHT31;53960;51.826;5.850;2022-09-17T00:46:36;11.73;83.30
67054;SHT31;53960;51.826;5.850;2022-09-17T00:49:06;11.78;83.09
67054;SHT31;53960;51.826;5.850;2022-09-17T00:51:36;11.82;83.05
67054;SHT31;53960;51.826;5.850;2022-09-17T00:54:06;11.92;83.41
67054;SHT31;53960;51.826;5.850;2022-09-17T00:56:34;11.99;83.80
67054;SHT31;53960;51.826;5.850;2022-09-17T00:59:01;11.86;83.23
67054;SHT31;53960;51.826;5.850;2022-09-17T01:01:28;11.94;83.68
67054;SHT31;53960;51.826;5.850;2022-09-17T01:03:54;11.93;83.40
67054;SHT31;53960;51.826;5.850;2022-09-17T01:06:33;11.90;83.03
67054;SHT31;53960;51.826;5.850;2022-09-17T01:22:56;11.94;83.22
67054;SHT31;53960;51.826;5.850;2022-09-17T01:39:05;12.14;83.50
67054;SHT31;53960;51.826;5.850;2022-09-17T01:41:40;12.13;83.18
67054;SHT31;53960;51.826;5.850;2022-09-17T01:44:17;12.12;83.64
67054;SHT31;53960;51.826;5.850;2022-09-17T01:46:49;12.07;84.13
67054;SHT31;53960;51.826;5.850;2022-09-17T01:49:18;12.00;83.58
67054;SHT31;53960;51.826;5.850;2022-09-17T01:51:47;11.93;83.40
67054;SHT31;53960;51.826;5.850;2022-09-17T01:54:21;11.86;83.81
67054;SHT31;53960;51.826;5.850;2022-09-17T01:56:55;11.75;84.00
67054;SHT31;53960;51.826;5.850;2022-09-17T01:59:50;11.63;84.31
67054;SHT31;53960;51.826;5.850;2022-09-17T02:02:24;11.61;84.47
67054;SHT31;53960;51.826;5.850;2022-09-17T02:05:00;11.55;84.75
67054;SHT31;53960;51.826;5.850;2022-09-17T02:07:28;11.44;85.25
67054;SHT31;53960;51.826;5.850;2022-09-17T02:09:59;11.42;85.22
67054;SHT31;53960;51.826;5.850;2022-09-17T02:12:32;11.44;85.40
67054;SHT31;53960;51.826;5.850;2022-09-17T02:15:02;11.38;85.34
67054;SHT31;53960;51.826;5.850;2022-09-17T02:17:38;11.32;85.49
67054;SHT31;53960;51.826;5.850;2022-09-17T02:20:05;11.34;85.60
67054;SHT31;53960;51.826;5.850;2022-09-17T02:22:41;11.36;85.33
67054;SHT31;53960;51.826;5.850;2022-09-17T02:27:56;11.23;85.77
67054;SHT31;53960;51.826;5.850;2022-09-17T02:30:22;11.20;85.98
67054;SHT31;53960;51.826;5.850;2022-09-17T02:32:47;11.18;86.10
67054;SHT31;53960;51.826;5.850;2022-09-17T02:35:13;11.17;86.03
67054;SHT31;53960;51.826;5.850;2022-09-17T02:37:40;11.17;86.10
67054;SHT31;53960;51.826;5.850;2022-09-17T02:40:06;11.13;86.31
67054;SHT31;53960;51.826;5.850;2022-09-17T02:49:02;11.15;85.81
67054;SHT31;53960;51.826;5.850;2022-09-17T02:51:46;11.14;86.26
67054;SHT31;53960;51.826;5.850;2022-09-17T02:54:30;11.13;86.09
67054;SHT31;53960;51.826;5.850;2022-09-17T02:59:51;11.08;86.11
67054;SHT31;53960;51.826;5.850;2022-09-17T03:02:22;11.08;86.06
67054;SHT31;53960;51.826;5.850;2022-09-17T03:04:49;11.06;86.19
67054;SHT31;53960;51.826;5.850;2022-09-17T03:07:16;11.03;86.13
67054;SHT31;53960;51.826;5.850;2022-09-17T03:09:42;10.97;85.94
67054;SHT31;53960;51.826;5.850;2022-09-17T03:12:08;10.97;86.15
67054;SHT31;53960;51.826;5.850;2022-09-17T03:14:34;11.07;85.66
67054;SHT31;53960;51.826;5.850;2022-09-17T03:16:59;11.07;85.48
67054;SHT31;53960;51.826;5.850;2022-09-17T03:19:25;11.04;85.35
67054;SHT31;53960;51.826;5.850;2022-09-17T03:21:52;10.97;85.71
67054;SHT31;53960;51.826;5.850;2022-09-17T03:24:17;10.94;85.39
67054;SHT31;53960;51.826;5.850;2022-09-17T03:26:42;10.97;85.69
67054;SHT31;53960;51.826;5.850;2022-09-17T03:29:08;10.92;85.40
67054;SHT31;53960;51.826;5.850;2022-09-17T03:31:33;10.81;85.48
67054;SHT31;53960;51.826;5.850;2022-09-17T03:33:58;10.80;85.50
67054;SHT31;53960;51.826;5.850;2022-09-17T03:36:24;10.84;85.38
67054;SHT31;53960;51.826;5.850;2022-09-17T03:38:56;10.81;85.30
67054;SHT31;53960;51.826;5.850;2022-09-17T03:41:23;10.80;84.99
67054;SHT31;53960;51.826;5.850;2022-09-17T03:43:48;10.83;84.79
67054;SHT31;53960;51.826;5.850;2022-09-17T03:46:14;10.89;84.83
67054;SHT31;53960;51.826;5.850;2022-09-17T03:48:39;10.85;84.64
67054;SHT31;53960;51.826;5.850;2022-09-17T03:51:05;10.84;84.40
67054;SHT31;53960;51.826;5.850;2022-09-17T03:53:31;10.83;84.54
67054;SHT31;53960;51.826;5.850;2022-09-17T03:56:01;10.85;84.52
67054;SHT31;53960;51.826;5.850;2022-09-17T03:58:27;10.84;84.63
67054;SHT31;53960;51.826;5.850;2022-09-17T04:00:53;10.85;84.61
67054;SHT31;53960;51.826;5.850;2022-09-17T04:03:22;10.81;84.70
67054;SHT31;53960;51.826;5.850;2022-09-17T04:05:48;10.81;84.79
67054;SHT31;53960;51.826;5.850;2022-09-17T04:08:13;10.79;85.09
67054;SHT31;53960;51.826;5.850;2022-09-17T04:10:39;10.74;84.97
67054;SHT31;53960;51.826;5.850;2022-09-17T04:13:04;10.70;85.29
67054;SHT31;53960;51.826;5.850;2022-09-17T04:15:29;10.70;85.06
67054;SHT31;53960;51.826;5.850;2022-09-17T04:17:55;10.70;85.09
67054;SHT31;53960;51.826;5.850;2022-09-17T04:20:24;10.70;85.17
67054;SHT31;53960;51.826;5.850;2022-09-17T04:22:50;10.67;85.20
67054;SHT31;53960;51.826;5.850;2022-09-17T04:25:15;10.62;85.35
67054;SHT31;53960;51.826;5.850;2022-09-17T04:27:42;10.66;85.18
67054;SHT31;53960;51.826;5.850;2022-09-17T04:30:08;10.66;85.22
67054;SHT31;53960;51.826;5.850;2022-09-17T04:32:33;10.66;85.25
67054;SHT31;53960;51.826;5.850;2022-09-17T04:34:59;10.66;85.31
67054;SHT31;53960;51.826;5.850;2022-09-17T04:37:24;10.64;85.35
67054;SHT31;53960;51.826;5.850;2022-09-17T04:39:50;10.64;85.38
67054;SHT31;53960;51.826;5.850;2022-09-17T04:42:16;10.67;85.45
67054;SHT31;53960;51.826;5.850;2022-09-17T04:44:41;10.67;85.35
67054;SHT31;53960;51.826;5.850;2022-09-17T04:47:07;10.66;85.39
67054;SHT31;53960;51.826;5.850;2022-09-17T04:49:32;10.63;85.61
67054;SHT31;53960;51.826;5.850;2022-09-17T04:51:57;10.62;85.77
67054;SHT31;53960;51.826;5.850;2022-09-17T04:54:23;10.62;85.91
67054;SHT31;53960;51.826;5.850;2022-09-17T04:56:48;10.64;85.89
67054;SHT31;53960;51.826;5.850;2022-09-17T04:59:14;10.63;85.91
67054;SHT31;53960;51.826;5.850;2022-09-17T05:01:39;10.62;85.93
67054;SHT31;53960;51.826;5.850;2022-09-17T05:04:05;10.62;86.09
67054;SHT31;53960;51.826;5.850;2022-09-17T05:06:30;10.62;85.94
67054;SHT31;53960;51.826;5.850;2022-09-17T05:08:56;10.64;85.98
67054;SHT31;53960;51.826;5.850;2022-09-17T05:11:21;10.63;85.95
67054;SHT31;53960;51.826;5.850;2022-09-17T05:13:46;10.62;85.77
67054;SHT31;53960;51.826;5.850;2022-09-17T05:16:12;10.62;85.72
67054;SHT31;53960;51.826;5.850;2022-09-17T05:18:37;10.59;85.74
67054;SHT31;53960;51.826;5.850;2022-09-17T05:21:03;10.56;85.81
67054;SHT31;53960;51.826;5.850;2022-09-17T05:23:28;10.57;85.64
67054;SHT31;53960;51.826;5.850;2022-09-17T05:25:59;10.63;85.44
67054;SHT31;53960;51.826;5.850;2022-09-17T05:28:26;10.64;85.17
67054;SHT31;53960;51.826;5.850;2022-09-17T05:30:51;10.62;85.20
67054;SHT31;53960;51.826;5.850;2022-09-17T05:33:17;10.60;85.14
67054;SHT31;53960;51.826;5.850;2022-09-17T05:35:43;10.64;85.05
67054;SHT31;53960;51.826;5.850;2022-09-17T05:38:09;10.63;84.99
67054;SHT31;53960;51.826;5.850;2022-09-17T05:40:34;10.69;84.78
67054;SHT31;53960;51.826;5.850;2022-09-17T05:43:01;10.79;83.97
67054;SHT31;53960;51.826;5.850;2022-09-17T05:45:28;10.81;83.71
67054;SHT31;53960;51.826;5.850;2022-09-17T05:47:57;10.89;83.26
67054;SHT31;53960;51.826;5.850;2022-09-17T05:50:23;10.87;83.23
67054;SHT31;53960;51.826;5.850;2022-09-17T05:52:49;10.84;83.29
67054;SHT31;53960;51.826;5.850;2022-09-17T05:55:15;10.80;83.59
67054;SHT31;53960;51.826;5.850;2022-09-17T05:57:40;10.81;83.37
67054;SHT31;53960;51.826;5.850;2022-09-17T06:00:06;10.87;83.02
67054;SHT31;53960;51.826;5.850;2022-09-17T06:02:31;10.83;83.12
67054;SHT31;53960;51.826;5.850;2022-09-17T06:04:57;10.83;83.08
67054;SHT31;53960;51.826;5.850;2022-09-17T06:07:26;10.83;83.30
67054;SHT31;53960;51.826;5.850;2022-09-17T06:09:51;10.84;82.95
67054;SHT31;53960;51.826;5.850;2022-09-17T06:12:16;10.87;82.71
67054;SHT31;53960;51.826;5.850;2022-09-17T06:14:42;10.89;82.83
67054;SHT31;53960;51.826;5.850;2022-09-17T06:17:07;10.96;82.63
67054;SHT31;53960;51.826;5.850;2022-09-17T06:19:32;11.03;82.26
67054;SHT31;53960;51.826;5.850;2022-09-17T06:21:57;11.06;82.06
67054;SHT31;53960;51.826;5.850;2022-09-17T06:24:23;11.13;81.53
67054;SHT31;53960;51.826;5.850;2022-09-17T06:26:50;11.20;81.45
67054;SHT31;53960;51.826;5.850;2022-09-17T06:29:16;11.25;80.94
67054;SHT31;53960;51.826;5.850;2022-09-17T06:31:41;11.27;80.94
67054;SHT31;53960;51.826;5.850;2022-09-17T06:34:10;11.34;80.98
67054;SHT31;53960;51.826;5.850;2022-09-17T06:36:35;11.32;80.76
67054;SHT31;53960;51.826;5.850;2022-09-17T06:39:00;11.36;80.92
67054;SHT31;53960;51.826;5.850;2022-09-17T06:41:26;11.45;80.86
67054;SHT31;53960;51.826;5.850;2022-09-17T06:43:52;11.46;80.78
67054;SHT31;53960;51.826;5.850;2022-09-17T06:46:18;11.48;80.61
67054;SHT31;53960;51.826;5.850;2022-09-17T06:48:44;11.50;80.83
67054;SHT31;53960;51.826;5.850;2022-09-17T06:51:10;11.51;80.51
67054;SHT31;53960;51.826;5.850;2022-09-17T06:53:36;11.51;80.50
67054;SHT31;53960;51.826;5.850;2022-09-17T06:56:03;11.57;80.63
67054;SHT31;53960;51.826;5.850;2022-09-17T06:58:29;11.71;80.13
67054;SHT31;53960;51.826;5.850;2022-09-17T07:00:59;11.76;79.75
67054;SHT31;53960;51.826;5.850;2022-09-17T07:03:25;11.81;79.78
67054;SHT31;53960;51.826;5.850;2022-09-17T07:05:50;11.85;79.47
67054;SHT31;53960;51.826;5.850;2022-09-17T07:08:16;11.89;79.08
67054;SHT31;53960;51.826;5.850;2022-09-17T07:10:42;12.03;78.78
67054;SHT31;53960;51.826;5.850;2022-09-17T07:13:07;12.06;78.69
67054;SHT31;53960;51.826;5.850;2022-09-17T07:15:32;12.16;78.57
67054;SHT31;53960;51.826;5.850;2022-09-17T07:17:58;12.17;78.23
67054;SHT31;53960;51.826;5.850;2022-09-17T07:20:23;12.24;77.42
67054;SHT31;53960;51.826;5.850;2022-09-17T07:22:56;12.31;77.56
67054;SHT31;53960;51.826;5.850;2022-09-17T07:25:21;12.40;77.02
67054;SHT31;53960;51.826;5.850;2022-09-17T07:27:47;12.51;77.22
67054;SHT31;53960;51.826;5.850;2022-09-17T07:30:12;12.57;76.40
67054;SHT31;53960;51.826;5.850;2022-09-17T07:32:37;12.58;74.99
67054;SHT31;53960;51.826;5.850;2022-09-17T07:35:03;12.71;75.38
67054;SHT31;53960;51.826;5.850;2022-09-17T07:37:28;12.79;75.60
67054;SHT31;53960;51.826;5.850;2022-09-17T07:39:54;12.81;74.66
67054;SHT31;53960;51.826;5.850;2022-09-17T07:42:19;12.78;74.28
67054;SHT31;53960;51.826;5.850;2022-09-17T07:44:45;12.82;74.28
67054;SHT31;53960;51.826;5.850;2022-09-17T07:47:11;12.89;74.39
67054;SHT31;53960;51.826;5.850;2022-09-17T07:49:36;12.95;74.15
67054;SHT31;53960;51.826;5.850;2022-09-17T07:52:01;12.99;73.21
67054;SHT31;53960;51.826;5.850;2022-09-17T07:54:33;13.05;73.18
67054;SHT31;53960;51.826;5.850;2022-09-17T07:56:59;13.08;73.86
67054;SHT31;53960;51.826;5.850;2022-09-17T07:59:25;13.13;72.61
67054;SHT31;53960;51.826;5.850;2022-09-17T08:01:50;13.12;72.51
67054;SHT31;53960;51.826;5.850;2022-09-17T08:04:15;13.15;73.10
67054;SHT31;53960;51.826;5.850;2022-09-17T08:06:41;13.24;72.48
67054;SHT31;53960;51.826;5.850;2022-09-17T08:09:06;13.32;72.76
67054;SHT31;53960;51.826;5.850;2022-09-17T08:11:33;13.36;72.26
67054;SHT31;53960;51.826;5.850;2022-09-17T08:13:59;13.42;72.54
67054;SHT31;53960;51.826;5.850;2022-09-17T08:16:24;13.49;72.19
67054;SHT31;53960;51.826;5.850;2022-09-17T08:18:54;13.53;72.01
67054;SHT31;53960;51.826;5.850;2022-09-17T08:21:21;13.60;71.13
67054;SHT31;53960;51.826;5.850;2022-09-17T08:23:46;13.61;71.26
67054;SHT31;53960;51.826;5.850;2022-09-17T08:26:21;13.68;71.35
67054;SHT31;53960;51.826;5.850;2022-09-17T08:28:49;13.64;71.30
67054;SHT31;53960;51.826;5.850;2022-09-17T08:31:17;13.63;71.44
67054;SHT31;53960;51.826;5.850;2022-09-17T08:33:43;13.75;71.37
67054;SHT31;53960;51.826;5.850;2022-09-17T08:36:10;13.71;70.78
67054;SHT31;53960;51.826;5.850;2022-09-17T08:38:36;13.77;70.75
67054;SHT31;53960;51.826;5.850;2022-09-17T08:43:41;14.00;70.38
67054;SHT31;53960;51.826;5.850;2022-09-17T08:46:10;14.00;69.27
67054;SHT31;53960;51.826;5.850;2022-09-17T08:48:40;14.00;69.15
67054;SHT31;53960;51.826;5.850;2022-09-17T08:51:21;14.00;69.05
67054;SHT31;53960;51.826;5.850;2022-09-17T08:54:00;14.00;69.78
67054;SHT31;53960;51.826;5.850;2022-09-17T08:56:31;14.11;69.30
67054;SHT31;53960;51.826;5.850;2022-09-17T08:59:03;14.04;68.35
67054;SHT31;53960;51.826;5.850;2022-09-17T09:02:02;14.14;67.97
67054;SHT31;53960;51.826;5.850;2022-09-17T09:04:57;14.30;67.19
67054;SHT31;53960;51.826;5.850;2022-09-17T09:07:29;14.48;66.61
67054;SHT31;53960;51.826;5.850;2022-09-17T09:10:20;14.50;66.29
67054;SHT31;53960;51.826;5.850;2022-09-17T09:12:48;14.32;65.50
67054;SHT31;53960;51.826;5.850;2022-09-17T09:15:26;14.30;64.85
67054;SHT31;53960;51.826;5.850;2022-09-17T09:17:57;14.02;65.47
67054;SHT31;53960;51.826;5.850;2022-09-17T09:20:42;14.01;67.48
67054;SHT31;53960;51.826;5.850;2022-09-17T09:23:17;13.87;67.90
67054;SHT31;53960;51.826;5.850;2022-09-17T09:26:05;13.90;68.35
67054;SHT31;53960;51.826;5.850;2022-09-17T09:28:55;14.11;67.91
67054;SHT31;53960;51.826;5.850;2022-09-17T09:34:07;14.35;62.67
67054;SHT31;53960;51.826;5.850;2022-09-17T09:36:36;14.42;62.47
67054;SHT31;53960;51.826;5.850;2022-09-17T09:39:19;14.42;62.05
67054;SHT31;53960;51.826;5.850;2022-09-17T09:42:05;14.49;61.45
67054;SHT31;53960;51.826;5.850;2022-09-17T09:44:34;14.56;61.78
67054;SHT31;53960;51.826;5.850;2022-09-17T09:49:59;14.70;59.04
67054;SHT31;53960;51.826;5.850;2022-09-17T09:52:41;14.72;59.29
67054;SHT31;53960;51.826;5.850;2022-09-17T09:57:48;14.73;63.23
67054;SHT31;53960;51.826;5.850;2022-09-17T10:03:19;14.38;66.18
67054;SHT31;53960;51.826;5.850;2022-09-17T10:05:59;14.33;66.88
67054;SHT31;53960;51.826;5.850;2022-09-17T10:08:26;14.35;66.91
67054;SHT31;53960;51.826;5.850;2022-09-17T10:10:54;14.32;67.43
67054;SHT31;53960;51.826;5.850;2022-09-17T10:13:20;14.24;68.30
67054;SHT31;53960;51.826;5.850;2022-09-17T10:15:46;14.28;69.01
67054;SHT31;53960;51.826;5.850;2022-09-17T10:18:18;14.49;69.77
67054;SHT31;53960;51.826;5.850;2022-09-17T10:20:58;14.48;69.44
67054;SHT31;53960;51.826;5.850;2022-09-17T10:23:26;14.63;68.46
67054;SHT31;53960;51.826;5.850;2022-09-17T10:25:53;14.62;69.82
67054;SHT31;53960;51.826;5.850;2022-09-17T10:28:52;14.69;70.01
67054;SHT31;53960;51.826;5.850;2022-09-17T10:31:19;14.87;70.18
67054;SHT31;53960;51.826;5.850;2022-09-17T10:34:00;14.84;68.33
67054;SHT31;53960;51.826;5.850;2022-09-17T10:36:45;14.55;71.18
67054;SHT31;53960;51.826;5.850;2022-09-17T10:42:02;14.04;77.93
67054;SHT31;53960;51.826;5.850;2022-09-17T10:44:32;13.73;76.27
67054;SHT31;53960;51.826;5.850;2022-09-17T10:47:10;13.47;78.93
67054;SHT31;53960;51.826;5.850;2022-09-17T10:49:55;13.30;80.20
67054;SHT31;53960;51.826;5.850;2022-09-17T10:58:01;12.91;84.27
67054;SHT31;53960;51.826;5.850;2022-09-17T11:22:10;13.40;83.36
67054;SHT31;53960;51.826;5.850;2022-09-17T11:24:48;13.50;83.20
67054;SHT31;53960;51.826;5.850;2022-09-17T11:30:18;13.81;83.54
67054;SHT31;53960;51.826;5.850;2022-09-17T11:35:49;13.94;79.15
67054;SHT31;53960;51.826;5.850;2022-09-17T11:38:23;13.94;77.92
67054;SHT31;53960;51.826;5.850;2022-09-17T11:43:30;14.09;76.35
67054;SHT31;53960;51.826;5.850;2022-09-17T11:45:59;14.22;76.51
67054;SHT31;53960;51.826;5.850;2022-09-17T11:51:17;14.60;74.72
67054;SHT31;53960;51.826;5.850;2022-09-17T11:53:48;14.80;74.87
67054;SHT31;53960;51.826;5.850;2022-09-17T11:56:20;14.84;71.89
67054;SHT31;53960;51.826;5.850;2022-09-17T11:58:52;14.87;73.04
67054;SHT31;53960;51.826;5.850;2022-09-17T12:01:40;15.01;70.50
67054;SHT31;53960;51.826;5.850;2022-09-17T12:04:44;15.23;67.51
67054;SHT31;53960;51.826;5.850;2022-09-17T12:07:20;15.17;66.70
67054;SHT31;53960;51.826;5.850;2022-09-17T12:09:52;15.21;65.25
67054;SHT31;53960;51.826;5.850;2022-09-17T12:12:21;15.18;65.69
67054;SHT31;53960;51.826;5.850;2022-09-17T12:14:53;15.00;64.90
67054;SHT31;53960;51.826;5.850;2022-09-17T12:17:25;15.04;65.16
67054;SHT31;53960;51.826;5.850;2022-09-17T12:19:58;15.00;67.05
67054;SHT31;53960;51.826;5.850;2022-09-17T12:22:34;15.20;64.12
67054;SHT31;53960;51.826;5.850;2022-09-17T12:25:02;15.25;63.46
67054;SHT31;53960;51.826;5.850;2022-09-17T12:30:20;15.23;63.03
67054;SHT31;53960;51.826;5.850;2022-09-17T12:33:26;15.20;62.31
67054;SHT31;53960;51.826;5.850;2022-09-17T12:36:18;15.12;65.59
67054;SHT31;53960;51.826;5.850;2022-09-17T12:39:08;15.38;66.24
67054;SHT31;53960;51.826;5.850;2022-09-17T12:52:44;15.20;63.30
67054;SHT31;53960;51.826;5.850;2022-09-17T12:58:22;14.65;66.48
67054;SHT31;53960;51.826;5.850;2022-09-17T13:01:03;14.70;66.59
67054;SHT31;53960;51.826;5.850;2022-09-17T13:03:39;14.42;70.21
67054;SHT31;53960;51.826;5.850;2022-09-17T13:14:44;14.81;73.39
67054;SHT31;53960;51.826;5.850;2022-09-17T13:17:27;14.86;72.98
67054;SHT31;53960;51.826;5.850;2022-09-17T13:20:10;15.03;70.55
67054;SHT31;53960;51.826;5.850;2022-09-17T13:22:44;15.04;68.42
67054;SHT31;53960;51.826;5.850;2022-09-17T13:25:11;15.14;67.85
67054;SHT31;53960;51.826;5.850;2022-09-17T13:27:38;14.93;67.24
67054;SHT31;53960;51.826;5.850;2022-09-17T13:30:08;14.57;69.28
67054;SHT31;53960;51.826;5.850;2022-09-17T13:37:37;14.93;67.80
67054;SHT31;53960;51.826;5.850;2022-09-17T13:40:37;15.20;68.27
67054;SHT31;53960;51.826;5.850;2022-09-17T13:45:27;15.38;66.86
67054;SHT31;53960;51.826;5.850;2022-09-17T13:47:56;15.20;71.79
67054;SHT31;53960;51.826;5.850;2022-09-17T13:50:32;14.50;79.87
67054;SHT31;53960;51.826;5.850;2022-09-17T13:53:04;14.11;77.87
67054;SHT31;53960;51.826;5.850;2022-09-17T13:55:34;13.85;76.34
67054;SHT31;53960;51.826;5.850;2022-09-17T13:58:05;13.75;77.79
67054;SHT31;53960;51.826;5.850;2022-09-17T14:03:46;13.94;79.54
67054;SHT31;53960;51.826;5.850;2022-09-17T14:13:48;14.35;78.47
67054;SHT31;53960;51.826;5.850;2022-09-17T14:21:41;14.50;74.40
67054;SHT31;53960;51.826;5.850;2022-09-17T14:24:22;14.38;76.96
67054;SHT31;53960;51.826;5.850;2022-09-17T14:30:04;14.55;76.83
67054;SHT31;53960;51.826;5.850;2022-09-17T14:35:40;14.00;78.29
67054;SHT31;53960;51.826;5.850;2022-09-17T14:38:18;13.78;77.11
67054;SHT31;53960;51.826;5.850;2022-09-17T14:40:52;13.64;76.68
67054;SHT31;53960;51.826;5.850;2022-09-17T14:46:08;13.75;76.47
67054;SHT31;53960;51.826;5.850;2022-09-17T14:48:36;13.87;77.03
67054;SHT31;53960;51.826;5.850;2022-09-17T14:53:46;14.12;73.51
67054;SHT31;53960;51.826;5.850;2022-09-17T14:56:14;14.33;72.51
67054;SHT31;53960;51.826;5.850;2022-09-17T14:58:44;14.55;70.82
67054;SHT31;53960;51.826;5.850;2022-09-17T15:01:29;14.63;70.34
67054;SHT31;53960;51.826;5.850;2022-09-17T15:06:39;14.76;68.95
67054;SHT31;53960;51.826;5.850;2022-09-17T15:09:05;14.72;69.08
67054;SHT31;53960;51.826;5.850;2022-09-17T15:11:34;14.80;67.49
67054;SHT31;53960;51.826;5.850;2022-09-17T15:14:04;14.81;68.94
67054;SHT31;53960;51.826;5.850;2022-09-17T15:16:31;14.83;66.56
67054;SHT31;53960;51.826;5.850;2022-09-17T15:18:58;14.91;65.55
67054;SHT31;53960;51.826;5.850;2022-09-17T15:21:34;14.91;63.63
67054;SHT31;53960;51.826;5.850;2022-09-17T15:26:40;15.03;63.91
67054;SHT31;53960;51.826;5.850;2022-09-17T15:29:06;15.06;63.86
67054;SHT31;53960;51.826;5.850;2022-09-17T15:31:34;14.98;63.03
67054;SHT31;53960;51.826;5.850;2022-09-17T15:34:01;14.96;63.25
67054;SHT31;53960;51.826;5.850;2022-09-17T15:36:27;15.04;63.70
67054;SHT31;53960;51.826;5.850;2022-09-17T15:38:54;15.01;63.63
67054;SHT31;53960;51.826;5.850;2022-09-17T15:41:39;14.94;64.17
67054;SHT31;53960;51.826;5.850;2022-09-17T15:44:19;14.91;64.14
67054;SHT31;53960;51.826;5.850;2022-09-17T15:46:45;14.76;65.89
67054;SHT31;53960;51.826;5.850;2022-09-17T15:49:32;14.90;66.18
67054;SHT31;53960;51.826;5.850;2022-09-17T15:52:27;14.93;66.18
67054;SHT31;53960;51.826;5.850;2022-09-17T15:54:55;15.08;66.40
67054;SHT31;53960;51.826;5.850;2022-09-17T15:57:21;15.07;64.51
67054;SHT31;53960;51.826;5.850;2022-09-17T15:59:48;14.94;65.74
67054;SHT31;53960;51.826;5.850;2022-09-17T16:02:29;14.91;65.11
67054;SHT31;53960;51.826;5.850;2022-09-17T16:07:48;14.79;65.74
67054;SHT31;53960;51.826;5.850;2022-09-17T16:10:14;14.77;66.19
67054;SHT31;53960;51.826;5.850;2022-09-17T16:12:40;14.77;67.36
67054;SHT31;53960;51.826;5.850;2022-09-17T16:15:06;14.83;67.09
67054;SHT31;53960;51.826;5.850;2022-09-17T16:17:44;14.80;66.65
67054;SHT31;53960;51.826;5.850;2022-09-17T16:20:19;14.75;67.24
67054;SHT31;53960;51.826;5.850;2022-09-17T16:22:46;14.62;66.93
67054;SHT31;53960;51.826;5.850;2022-09-17T16:25:12;14.52;66.80
67054;SHT31;53960;51.826;5.850;2022-09-17T16:28:01;14.42;66.69
67054;SHT31;53960;51.826;5.850;2022-09-17T16:30:27;14.36;65.93
67054;SHT31;53960;51.826;5.850;2022-09-17T16:32:52;14.28;65.18
67054;SHT31;53960;51.826;5.850;2022-09-17T16:35:20;14.38;65.20
67054;SHT31;53960;51.826;5.850;2022-09-17T16:37:47;14.32;65.20
67054;SHT31;53960;51.826;5.850;2022-09-17T16:40:13;14.25;66.78
67054;SHT31;53960;51.826;5.850;2022-09-17T16:42:39;14.24;65.50
67054;SHT31;53960;51.826;5.850;2022-09-17T16:45:05;14.21;65.94
67054;SHT31;53960;51.826;5.850;2022-09-17T16:47:38;14.08;66.49
67054;SHT31;53960;51.826;5.850;2022-09-17T16:50:13;14.08;65.93
67054;SHT31;53960;51.826;5.850;2022-09-17T16:52:40;14.05;65.96
67054;SHT31;53960;51.826;5.850;2022-09-17T16:55:06;14.04;66.52
67054;SHT31;53960;51.826;5.850;2022-09-17T16:57:32;14.04;66.50
67054;SHT31;53960;51.826;5.850;2022-09-17T16:59:57;13.94;67.72
67054;SHT31;53960;51.826;5.850;2022-09-17T17:02:23;13.91;67.29
67054;SHT31;53960;51.826;5.850;2022-09-17T17:04:48;13.87;67.91
67054;SHT31;53960;51.826;5.850;2022-09-17T17:07:14;13.92;67.63
67054;SHT31;53960;51.826;5.850;2022-09-17T17:09:39;13.84;67.50
67054;SHT31;53960;51.826;5.850;2022-09-17T17:12:05;13.78;67.73
67054;SHT31;53960;51.826;5.850;2022-09-17T17:14:30;13.85;68.28
67054;SHT31;53960;51.826;5.850;2022-09-17T17:16:55;13.82;68.08
67054;SHT31;53960;51.826;5.850;2022-09-17T17:19:21;13.78;68.19
67054;SHT31;53960;51.826;5.850;2022-09-17T17:21:50;13.82;68.35
67054;SHT31;53960;51.826;5.850;2022-09-17T17:24:16;13.84;68.97
67054;SHT31;53960;51.826;5.850;2022-09-17T17:26:41;13.80;69.26
67054;SHT31;53960;51.826;5.850;2022-09-17T17:29:07;13.80;68.85
67054;SHT31;53960;51.826;5.850;2022-09-17T17:31:33;13.88;68.05
67054;SHT31;53960;51.826;5.850;2022-09-17T17:33:58;13.90;67.28
67054;SHT31;53960;51.826;5.850;2022-09-17T17:36:24;13.97;65.00
67054;SHT31;53960;51.826;5.850;2022-09-17T17:38:49;13.95;65.25
67054;SHT31;53960;51.826;5.850;2022-09-17T17:41:14;13.87;66.01
67054;SHT31;53960;51.826;5.850;2022-09-17T17:43:42;13.81;66.73
67054;SHT31;53960;51.826;5.850;2022-09-17T17:46:09;13.71;66.95
67054;SHT31;53960;51.826;5.850;2022-09-17T17:48:34;13.63;67.86
67054;SHT31;53960;51.826;5.850;2022-09-17T17:51:01;13.59;67.33
67054;SHT31;53960;51.826;5.850;2022-09-17T17:53:27;13.43;68.33
67054;SHT31;53960;51.826;5.850;2022-09-17T17:56:03;13.40;68.69
67054;SHT31;53960;51.826;5.850;2022-09-17T17:58:29;13.38;68.85
67054;SHT31;53960;51.826;5.850;2022-09-17T18:00:55;13.26;69.80
67054;SHT31;53960;51.826;5.850;2022-09-17T18:03:20;13.20;70.62
67054;SHT31;53960;51.826;5.850;2022-09-17T18:05:53;13.15;70.68
67054;SHT31;53960;51.826;5.850;2022-09-17T18:08:22;13.02;72.03
67054;SHT31;53960;51.826;5.850;2022-09-17T18:10:56;12.95;72.53
67054;SHT31;53960;51.826;5.850;2022-09-17T18:13:22;12.92;72.61
67054;SHT31;53960;51.826;5.850;2022-09-17T18:15:55;12.95;72.90
67054;SHT31;53960;51.826;5.850;2022-09-17T18:18:23;12.95;73.13
67054;SHT31;53960;51.826;5.850;2022-09-17T18:20:49;12.89;73.71
67054;SHT31;53960;51.826;5.850;2022-09-17T18:23:16;12.82;74.38
67054;SHT31;53960;51.826;5.850;2022-09-17T18:25:41;12.79;74.71
67054;SHT31;53960;51.826;5.850;2022-09-17T18:28:07;12.81;74.97
67054;SHT31;53960;51.826;5.850;2022-09-17T18:30:35;12.81;75.14